sensor_id;sensor_type;location;lat;lon;timestamp;pressure;altitude;pressure_sealevel;temperature;humidity
11712;BME280;5912;51.034;6.984;2022-10-16T00:01:55;100034.19;;;14.82;100.00
11712;BME280;5912;51.034;6.984;2022-10-16T00:04:20;100040.88;;;14.85;100.00
11712;BME280;5912;51.034;6.984;2022-10-16T00:06:45;100041.69;;;14.86;100.00
11712;BME280;5912;51.034;6.984;2022-10-16T00:09:11;100059.13;;;14.87;100.00
11712;BME280;5912;51.034;6.984;2022-10-16T00:11:38;100053.84;;;14.87;100.00
11712;BME280;5912;51.034;6.984;2022-10-16T00:14:08;100047.69;;;14.81;100.00
11712;BME280;5912;51.034;6.984;2022-10-16T00:16:34;100058.50;;;14.79;100.00
11712;BME280;5912;51.034;6.984;2022-10-16T00:19:00;100049.72;;;14.74;100.00
11712;BME280;5912;51.034;6.984;2022-10-16T00:21:27;100057.16;;;14.77;100.00
11712;BME280;5912;51.034;6.984;2022-10-16T00:23:58;100062.63;;;14.70;100.00
11712;BME280;5912;51.034;6.984;2022-10-16T00:26:28;100029.88;;;14.38;100.00
11712;BME280;5912;51.034;6.984;2022-10-16T00:28:54;100071.22;;;14.61;100.00
11712;BME280;5912;51.034;6.984;2022-10-16T00:31:21;100067.75;;;14.60;100.00
11712;BME280;5912;51.034;6.984;2022-10-16T00:33:47;100041.13;;;14.45;100.00
11712;BME280;5912;51.034;6.984;2022-10-16T00:36:15;100059.59;;;14.62;100.00
11712;BME280;5912;51.034;6.984;2022-10-16T00:38:42;100058.00;;;14.61;100.00
11712;BME280;5912;51.034;6.984;2022-10-16T00:41:10;100060.41;;;14.62;100.00
11712;BME280;5912;51.034;6.984;2022-10-16T00:43:42;100052.47;;;14.62;100.00
11712;BME280;5912;51.034;6.984;2022-10-16T00:46:16;100053.28;;;14.63;100.00
11712;BME280;5912;51.034;6.984;2022-10-16T00:48:47;100056.44;;;14.65;100.00
11712;BME280;5912;51.034;6.984;2022-10-16T00:51:13;100048.72;;;14.58;100.00
11712;BME280;5912;51.034;6.984;2022-10-16T00:53:39;100049.00;;;14.62;100.00
11712;BME280;5912;51.034;6.984;2022-10-16T00:56:05;100056.09;;;14.56;100.00
11712;BME280;5912;51.034;6.984;2022-10-16T00:58:30;100047.59;;;14.54;100.00
11712;BME280;5912;51.034;6.984;2022-10-16T01:00:56;100041.13;;;14.45;100.00
11712;BME280;5912;51.034;6.984;2022-10-16T01:03:25;100053.69;;;14.38;100.00
11712;BME280;5912;51.034;6.984;2022-10-16T01:05:59;100048.81;;;14.30;100.00
11712;BME280;5912;51.034;6.984;2022-10-16T01:08:39;100049.78;;;14.24;100.00
11712;BME280;5912;51.034;6.984;2022-10-16T01:12:01;100059.22;;;14.20;100.00
11712;BME280;5912;51.034;6.984;2022-10-16T01:14:15;100057.41;;;14.09;100.00
11712;BME280;5912;51.034;6.984;2022-10-16T01:17:12;100055.03;;;14.08;100.00
11712;BME280;5912;51.034;6.984;2022-10-16T01:22:33;100071.22;;;13.95;100.00
11712;BME280;5912;51.034;6.984;2022-10-16T01:25:05;100070.63;;;13.93;100.00
11712;BME280;5912;51.034;6.984;2022-10-16T01:27:36;100063.47;;;13.77;100.00
11712;BME280;5912;51.034;6.984;2022-10-16T01:30:21;100052.19;;;13.65;100.00
11712;BME280;5912;51.034;6.984;2022-10-16T01:33:19;100068.44;;;13.73;100.00
11712;BME280;5912;51.034;6.984;2022-10-16T01:35:51;100063.25;;;13.78;100.00
11712;BME280;5912;51.034;6.984;2022-10-16T01:38:30;100046.97;;;13.70;100.00
11712;BME280;5912;51.034;6.984;2022-10-16T01:41:01;100058.09;;;13.72;100.00
11712;BME280;5912;51.034;6.984;2022-10-16T01:43:36;100071.22;;;13.67;100.00
11712;BME280;5912;51.034;6.984;2022-10-16T01:46:03;100082.34;;;13.69;100.00
11712;BME280;5912;51.034;6.984;2022-10-16T01:48:30;100063.28;;;13.67;100.00
11712;BME280;5912;51.034;6.984;2022-10-16T01:51:02;100059.78;;;13.61;100.00
11712;BME280;5912;51.034;6.984;2022-10-16T01:53:29;100060.72;;;13.55;100.00
11712;BME280;5912;51.034;6.984;2022-10-16T01:55:55;100064.34;;;13.66;100.00
11712;BME280;5912;51.034;6.984;2022-10-16T01:58:23;100078.03;;;13.79;100.00
11712;BME280;5912;51.034;6.984;2022-10-16T02:00:52;100083.91;;;13.81;100.00
11712;BME280;5912;51.034;6.984;2022-10-16T02:03:19;100075.97;;;13.81;100.00
11712;BME280;5912;51.034;6.984;2022-10-16T02:05:56;100078.63;;;13.81;100.00
11712;BME280;5912;51.034;6.984;2022-10-16T02:08:27;100073.25;;;13.76;100.00
11712;BME280;5912;51.034;6.984;2022-10-16T02:10:55;100055.59;;;13.65;100.00
11712;BME280;5912;51.034;6.984;2022-10-16T02:13:31;100064.09;;;13.67;100.00
11712;BME280;5912;51.034;6.984;2022-10-16T02:15:58;100071.94;;;13.62;100.00
11712;BME280;5912;51.034;6.984;2022-10-16T02:18:24;100050.78;;;13.46;100.00
11712;BME280;5912;51.034;6.984;2022-10-16T02:23:57;100086.66;;;13.58;100.00
11712;BME280;5912;51.034;6.984;2022-10-16T02:26:35;100075.53;;;13.56;100.00
11712;BME280;5912;51.034;6.984;2022-10-16T02:29:05;100089.19;;;13.53;100.00
11712;BME280;5912;51.034;6.984;2022-10-16T02:31:33;100090.47;;;13.51;100.00
11712;BME280;5912;51.034;6.984;2022-10-16T02:34:02;100074.53;;;13.46;100.00
11712;BME280;5912;51.034;6.984;2022-10-16T02:36:30;100091.84;;;13.53;100.00
11712;BME280;5912;51.034;6.984;2022-10-16T02:38:57;100094.47;;;13.53;100.00
11712;BME280;5912;51.034;6.984;2022-10-16T02:41:24;100090.22;;;13.52;100.00
11712;BME280;5912;51.034;6.984;2022-10-16T02:43:49;100093.66;;;13.53;100.00
11712;BME280;5912;51.034;6.984;2022-10-16T02:46:16;100103.66;;;13.51;100.00
11712;BME280;5912;51.034;6.984;2022-10-16T02:48:42;100085.09;;;13.46;100.00
11712;BME280;5912;51.034;6.984;2022-10-16T02:51:07;100076.38;;;13.45;100.00
11712;BME280;5912;51.034;6.984;2022-10-16T02:53:33;100079.91;;;13.51;100.00
11712;BME280;5912;51.034;6.984;2022-10-16T02:55:58;100080.84;;;13.45;100.00
11712;BME280;5912;51.034;6.984;2022-10-16T02:58:23;100103.84;;;13.32;100.00
11712;BME280;5912;51.034;6.984;2022-10-16T03:00:48;100102.22;;;13.31;100.00
11712;BME280;5912;51.034;6.984;2022-10-16T03:03:14;100095.34;;;13.30;100.00
11712;BME280;5912;51.034;6.984;2022-10-16T03:05:39;100091.66;;;13.31;100.00
11712;BME280;5912;51.034;6.984;2022-10-16T03:08:04;100090.66;;;13.32;100.00
11712;BME280;5912;51.034;6.984;2022-10-16T03:10:30;100094.31;;;13.31;100.00
11712;BME280;5912;51.034;6.984;2022-10-16T03:12:55;100091.19;;;13.34;100.00
11712;BME280;5912;51.034;6.984;2022-10-16T03:15:20;100083.50;;;13.33;100.00
11712;BME280;5912;51.034;6.984;2022-10-16T03:17:46;100065.03;;;13.33;100.00
11712;BME280;5912;51.034;6.984;2022-10-16T03:20:11;100071.03;;;13.28;100.00
11712;BME280;5912;51.034;6.984;2022-10-16T03:22:36;100068.84;;;13.25;100.00
11712;BME280;5912;51.034;6.984;2022-10-16T03:25:02;100052.44;;;13.23;100.00
11712;BME280;5912;51.034;6.984;2022-10-16T03:27:27;100056.25;;;13.16;100.00
11712;BME280;5912;51.034;6.984;2022-10-16T03:29:52;100071.28;;;13.15;100.00
11712;BME280;5912;51.034;6.984;2022-10-16T03:32:18;100080.81;;;13.16;100.00
11712;BME280;5912;51.034;6.984;2022-10-16T03:34:45;100081.66;;;13.05;100.00
11712;BME280;5912;51.034;6.984;2022-10-16T03:37:10;100072.78;;;13.00;100.00
11712;BME280;5912;51.034;6.984;2022-10-16T03:39:35;100062.34;;;12.93;100.00
11712;BME280;5912;51.034;6.984;2022-10-16T03:42:00;100090.56;;;13.04;100.00
11712;BME280;5912;51.034;6.984;2022-10-16T03:44:26;100086.81;;;13.00;100.00
11712;BME280;5912;51.034;6.984;2022-10-16T03:46:51;100086.56;;;12.90;100.00
11712;BME280;5912;51.034;6.984;2022-10-16T03:49:16;100091.94;;;12.95;100.00
11712;BME280;5912;51.034;6.984;2022-10-16T03:51:42;100086.91;;;12.94;100.00
11712;BME280;5912;51.034;6.984;2022-10-16T03:54:07;100092.41;;;12.92;100.00
11712;BME280;5912;51.034;6.984;2022-10-16T03:56:32;100100.91;;;12.94;100.00
11712;BME280;5912;51.034;6.984;2022-10-16T03:58:58;100115.69;;;12.95;100.00
11712;BME280;5912;51.034;6.984;2022-10-16T04:01:23;100117.28;;;12.96;100.00
11712;BME280;5912;51.034;6.984;2022-10-16T04:03:48;100122.31;;;12.98;100.00
11712;BME280;5912;51.034;6.984;2022-10-16T04:06:13;100121.94;;;13.01;100.00
11712;BME280;5912;51.034;6.984;2022-10-16T04:08:39;100113.78;;;13.02;100.00
11712;BME280;5912;51.034;6.984;2022-10-16T04:11:07;100121.22;;;13.05;100.00
11712;BME280;5912;51.034;6.984;2022-10-16T04:13:32;100134.97;;;13.07;100.00
11712;BME280;5912;51.034;6.984;2022-10-16T04:15:57;100127.88;;;13.08;100.00
11712;BME280;5912;51.034;6.984;2022-10-16T04:18:22;100129.25;;;13.10;100.00
11712;BME280;5912;51.034;6.984;2022-10-16T04:20:48;100131.66;;;13.12;100.00
11712;BME280;5912;51.034;6.984;2022-10-16T04:23:13;100104.81;;;13.03;100.00
11712;BME280;5912;51.034;6.984;2022-10-16T04:25:38;100128.78;;;13.13;100.00
11712;BME280;5912;51.034;6.984;2022-10-16T04:28:04;100141.41;;;13.11;100.00
11712;BME280;5912;51.034;6.984;2022-10-16T04:30:29;100146.69;;;13.11;100.00
11712;BME280;5912;51.034;6.984;2022-10-16T04:32:54;100141.63;;;13.10;100.00
11712;BME280;5912;51.034;6.984;2022-10-16T04:35:20;100145.53;;;13.07;100.00
11712;BME280;5912;51.034;6.984;2022-10-16T04:37:46;100140.16;;;13.02;100.00
11712;BME280;5912;51.034;6.984;2022-10-16T04:40:12;100137.38;;;12.97;100.00
11712;BME280;5912;51.034;6.984;2022-10-16T04:42:38;100131.97;;;12.92;100.00
11712;BME280;5912;51.034;6.984;2022-10-16T04:45:05;100133.25;;;12.90;100.00
11712;BME280;5912;51.034;6.984;2022-10-16T04:47:30;100146.88;;;12.87;100.00
11712;BME280;5912;51.034;6.984;2022-10-16T04:49:56;100144.47;;;12.85;100.00
11712;BME280;5912;51.034;6.984;2022-10-16T04:52:22;100129.34;;;12.81;100.00
11712;BME280;5912;51.034;6.984;2022-10-16T04:54:49;100140.13;;;12.91;100.00
11712;BME280;5912;51.034;6.984;2022-10-16T04:57:15;100151.72;;;12.90;100.00
11712;BME280;5912;51.034;6.984;2022-10-16T04:59:40;100148.28;;;12.89;100.00
11712;BME280;5912;51.034;6.984;2022-10-16T05:02:06;100166.97;;;12.99;100.00
11712;BME280;5912;51.034;6.984;2022-10-16T05:04:31;100161.69;;;12.99;100.00
11712;BME280;5912;51.034;6.984;2022-10-16T05:06:56;100163.19;;;12.95;100.00
11712;BME280;5912;51.034;6.984;2022-10-16T05:09:22;100156.31;;;12.83;100.00
11712;BME280;5912;51.034;6.984;2022-10-16T05:11:47;100170.84;;;12.85;100.00
11712;BME280;5912;51.034;6.984;2022-10-16T05:14:12;100173.81;;;12.77;100.00
11712;BME280;5912;51.034;6.984;2022-10-16T05:16:37;100169.47;;;12.71;100.00
11712;BME280;5912;51.034;6.984;2022-10-16T05:19:03;100183.94;;;12.69;100.00
11712;BME280;5912;51.034;6.984;2022-10-16T05:21:28;100182.75;;;12.65;100.00
11712;BME280;5912;51.034;6.984;2022-10-16T05:23:54;100170.25;;;12.49;100.00
11712;BME280;5912;51.034;6.984;2022-10-16T05:26:20;100190.31;;;12.50;100.00
11712;BME280;5912;51.034;6.984;2022-10-16T05:28:46;100184.09;;;12.44;100.00
11712;BME280;5912;51.034;6.984;2022-10-16T05:31:11;100181.69;;;12.43;100.00
11712;BME280;5912;51.034;6.984;2022-10-16T05:33:36;100192.16;;;12.49;100.00
11712;BME280;5912;51.034;6.984;2022-10-16T05:36:04;100198.59;;;12.53;100.00
11712;BME280;5912;51.034;6.984;2022-10-16T05:38:30;100208.69;;;12.56;100.00
11712;BME280;5912;51.034;6.984;2022-10-16T05:40:55;100206.16;;;12.61;100.00
11712;BME280;5912;51.034;6.984;2022-10-16T05:43:21;100201.44;;;12.63;100.00
11712;BME280;5912;51.034;6.984;2022-10-16T05:46:05;100216.59;;;12.68;100.00
11712;BME280;5912;51.034;6.984;2022-10-16T05:48:31;100202.19;;;12.82;100.00
11712;BME280;5912;51.034;6.984;2022-10-16T05:51:04;100207.13;;;12.90;100.00
11712;BME280;5912;51.034;6.984;2022-10-16T05:53:31;100203.22;;;12.92;100.00
11712;BME280;5912;51.034;6.984;2022-10-16T05:55:58;100210.44;;;12.97;100.00
11712;BME280;5912;51.034;6.984;2022-10-16T05:58:24;100200.81;;;12.91;100.00
11712;BME280;5912;51.034;6.984;2022-10-16T06:01:00;100230.88;;;13.01;100.00
11712;BME280;5912;51.034;6.984;2022-10-16T06:03:26;100226.25;;;12.97;100.00
11712;BME280;5912;51.034;6.984;2022-10-16T06:05:51;100226.66;;;13.00;100.00
11712;BME280;5912;51.034;6.984;2022-10-16T06:08:18;100232.75;;;13.01;100.00
11712;BME280;5912;51.034;6.984;2022-10-16T06:10:45;100230.50;;;12.98;100.00
11712;BME280;5912;51.034;6.984;2022-10-16T06:13:11;100235.56;;;12.99;100.00
11712;BME280;5912;51.034;6.984;2022-10-16T06:15:38;100258.75;;;12.97;100.00
11712;BME280;5912;51.034;6.984;2022-10-16T06:18:04;100228.78;;;12.80;100.00
11712;BME280;5912;51.034;6.984;2022-10-16T06:20:30;100252.28;;;12.93;100.00
11712;BME280;5912;51.034;6.984;2022-10-16T06:22:55;100262.38;;;12.96;100.00
11712;BME280;5912;51.034;6.984;2022-10-16T06:25:21;100234.41;;;12.95;100.00
11712;BME280;5912;51.034;6.984;2022-10-16T06:27:46;100246.03;;;13.06;100.00
11712;BME280;5912;51.034;6.984;2022-10-16T06:30:12;100254.88;;;13.11;100.00
11712;BME280;5912;51.034;6.984;2022-10-16T06:32:37;100252.13;;;13.18;100.00
11712;BME280;5912;51.034;6.984;2022-10-16T06:35:02;100246.75;;;13.24;100.00
11712;BME280;5912;51.034;6.984;2022-10-16T06:37:28;100242.47;;;13.23;100.00
11712;BME280;5912;51.034;6.984;2022-10-16T06:39:53;100254.53;;;13.43;100.00
11712;BME280;5912;51.034;6.984;2022-10-16T06:42:18;100270.81;;;13.51;100.00
11712;BME280;5912;51.034;6.984;2022-10-16T06:44:44;100277.59;;;13.59;100.00
11712;BME280;5912;51.034;6.984;2022-10-16T06:47:10;100287.09;;;13.71;100.00
11712;BME280;5912;51.034;6.984;2022-10-16T06:49:35;100278.03;;;13.79;100.00
11712;BME280;5912;51.034;6.984;2022-10-16T06:52:00;100290.78;;;13.93;100.00
11712;BME280;5912;51.034;6.984;2022-10-16T06:54:27;100299.69;;;14.04;100.00
11712;BME280;5912;51.034;6.984;2022-10-16T06:56:52;100254.91;;;13.86;100.00
11712;BME280;5912;51.034;6.984;2022-10-16T06:59:19;100308.50;;;14.21;100.00
11712;BME280;5912;51.034;6.984;2022-10-16T07:01:45;100303.91;;;14.28;100.00
11712;BME280;5912;51.034;6.984;2022-10-16T07:04:10;100309.84;;;14.35;100.00
11712;BME280;5912;51.034;6.984;2022-10-16T07:06:35;100317.88;;;14.40;100.00
11712;BME280;5912;51.034;6.984;2022-10-16T07:09:04;100319.34;;;14.47;100.00
11712;BME280;5912;51.034;6.984;2022-10-16T07:11:30;100326.13;;;14.55;100.00
11712;BME280;5912;51.034;6.984;2022-10-16T07:13:55;100324.94;;;14.62;100.00
11712;BME280;5912;51.034;6.984;2022-10-16T07:16:23;100326.97;;;14.72;100.00
11712;BME280;5912;51.034;6.984;2022-10-16T07:18:49;100325.03;;;14.84;100.00
11712;BME280;5912;51.034;6.984;2022-10-16T07:21:19;100343.28;;;14.97;100.00
11712;BME280;5912;51.034;6.984;2022-10-16T07:23:45;100344.28;;;15.08;100.00
11712;BME280;5912;51.034;6.984;2022-10-16T07:26:11;100349.41;;;15.14;100.00
11712;BME280;5912;51.034;6.984;2022-10-16T07:28:36;100358.00;;;15.21;100.00
11712;BME280;5912;51.034;6.984;2022-10-16T07:31:07;100366.03;;;15.26;100.00
11712;BME280;5912;51.034;6.984;2022-10-16T07:33:34;100371.31;;;15.26;100.00
11712;BME280;5912;51.034;6.984;2022-10-16T07:36:00;100375.31;;;15.29;100.00
11712;BME280;5912;51.034;6.984;2022-10-16T07:38:26;100377.66;;;15.25;100.00
11712;BME280;5912;51.034;6.984;2022-10-16T07:41:18;100383.22;;;15.24;100.00
11712;BME280;5912;51.034;6.984;2022-10-16T07:43:52;100374.84;;;15.15;100.00
11712;BME280;5912;51.034;6.984;2022-10-16T07:46:19;100378.31;;;15.16;100.00
11712;BME280;5912;51.034;6.984;2022-10-16T07:48:45;100374.31;;;15.02;100.00
11712;BME280;5912;51.034;6.984;2022-10-16T07:51:14;100385.47;;;15.04;100.00
11712;BME280;5912;51.034;6.984;2022-10-16T07:53:39;100374.25;;;14.97;100.00
11712;BME280;5912;51.034;6.984;2022-10-16T07:56:06;100391.69;;;15.09;100.00
11712;BME280;5912;51.034;6.984;2022-10-16T07:58:33;100403.72;;;15.17;100.00
11712;BME280;5912;51.034;6.984;2022-10-16T08:01:03;100409.50;;;15.30;100.00
11712;BME280;5912;51.034;6.984;2022-10-16T08:03:29;100414.03;;;15.46;100.00
11712;BME280;5912;51.034;6.984;2022-10-16T08:05:56;100407.88;;;15.74;100.00
11712;BME280;5912;51.034;6.984;2022-10-16T08:08:22;100401.09;;;15.99;99.98
11712;BME280;5912;51.034;6.984;2022-10-16T08:10:47;100417.91;;;16.26;96.33
11712;BME280;5912;51.034;6.984;2022-10-16T08:13:12;100419.66;;;16.59;96.30
11712;BME280;5912;51.034;6.984;2022-10-16T08:15:40;100421.69;;;16.95;93.66
11712;BME280;5912;51.034;6.984;2022-10-16T08:18:05;100426.03;;;17.33;90.33
11712;BME280;5912;51.034;6.984;2022-10-16T08:20:32;100440.72;;;17.67;86.69
11712;BME280;5912;51.034;6.984;2022-10-16T08:22:59;100438.81;;;17.99;84.85
11712;BME280;5912;51.034;6.984;2022-10-16T08:25:25;100437.44;;;18.33;83.71
11712;BME280;5912;51.034;6.984;2022-10-16T08:27:50;100442.31;;;18.46;82.86
11712;BME280;5912;51.034;6.984;2022-10-16T08:30:18;100441.81;;;18.49;82.59
11712;BME280;5912;51.034;6.984;2022-10-16T08:32:44;100443.88;;;18.42;80.15
11712;BME280;5912;51.034;6.984;2022-10-16T08:35:10;100455.88;;;18.40;80.59
11712;BME280;5912;51.034;6.984;2022-10-16T08:37:36;100466.81;;;18.43;76.81
11712;BME280;5912;51.034;6.984;2022-10-16T08:40:04;100457.25;;;18.52;76.17
11712;BME280;5912;51.034;6.984;2022-10-16T08:45:34;100463.00;;;18.86;72.22
11712;BME280;5912;51.034;6.984;2022-10-16T08:48:18;100473.16;;;18.99;73.28
11712;BME280;5912;51.034;6.984;2022-10-16T08:50:47;100471.09;;;19.21;73.40
11712;BME280;5912;51.034;6.984;2022-10-16T08:53:19;100467.16;;;19.44;69.90
11712;BME280;5912;51.034;6.984;2022-10-16T08:55:54;100473.00;;;19.51;68.35
11712;BME280;5912;51.034;6.984;2022-10-16T08:58:27;100494.63;;;19.69;68.75
11712;BME280;5912;51.034;6.984;2022-10-16T09:00:55;100472.50;;;19.74;68.65
11712;BME280;5912;51.034;6.984;2022-10-16T09:06:20;100469.81;;;19.94;64.81
11712;BME280;5912;51.034;6.984;2022-10-16T09:22:31;100500.13;;;21.70;58.82
11712;BME280;5912;51.034;6.984;2022-10-16T09:25:00;100497.75;;;22.03;57.61
11712;BME280;5912;51.034;6.984;2022-10-16T09:27:30;100486.88;;;22.18;55.46
11712;BME280;5912;51.034;6.984;2022-10-16T09:29:55;100499.31;;;22.32;53.31
11712;BME280;5912;51.034;6.984;2022-10-16T09:32:22;100495.41;;;22.48;52.92
11712;BME280;5912;51.034;6.984;2022-10-16T09:34:54;100491.78;;;22.63;52.37
11712;BME280;5912;51.034;6.984;2022-10-16T09:37:22;100506.75;;;22.87;51.82
11712;BME280;5912;51.034;6.984;2022-10-16T09:39:53;100506.34;;;22.99;48.63
11712;BME280;5912;51.034;6.984;2022-10-16T09:42:32;100497.66;;;23.07;48.90
11712;BME280;5912;51.034;6.984;2022-10-16T09:44:59;100494.88;;;23.35;49.41
11712;BME280;5912;51.034;6.984;2022-10-16T09:47:26;100501.69;;;23.65;47.26
11712;BME280;5912;51.034;6.984;2022-10-16T09:49:58;100501.53;;;23.57;45.92
11712;BME280;5912;51.034;6.984;2022-10-16T09:52:26;100500.06;;;23.64;46.30
11712;BME280;5912;51.034;6.984;2022-10-16T09:54:54;100498.44;;;23.82;47.18
11712;BME280;5912;51.034;6.984;2022-10-16T09:57:21;100505.50;;;24.10;45.13
11712;BME280;5912;51.034;6.984;2022-10-16T09:59:51;100507.38;;;24.41;44.49
11712;BME280;5912;51.034;6.984;2022-10-16T10:02:20;100509.59;;;24.66;43.91
11712;BME280;5912;51.034;6.984;2022-10-16T10:04:50;100510.78;;;25.01;44.63
11712;BME280;5912;51.034;6.984;2022-10-16T10:07:25;100517.88;;;25.33;41.86
11712;BME280;5912;51.034;6.984;2022-10-16T10:09:52;100498.72;;;25.48;40.86
11712;BME280;5912;51.034;6.984;2022-10-16T10:12:25;100497.97;;;25.34;40.65
11712;BME280;5912;51.034;6.984;2022-10-16T10:14:53;100504.06;;;25.26;40.79
11712;BME280;5912;51.034;6.984;2022-10-16T10:22:26;100503.28;;;26.05;40.31
11712;BME280;5912;51.034;6.984;2022-10-16T10:30:42;100494.97;;;25.22;41.19
11712;BME280;5912;51.034;6.984;2022-10-16T10:38:40;100504.91;;;23.30;45.58
11712;BME280;5912;51.034;6.984;2022-10-16T10:41:20;100505.41;;;23.08;46.86
11712;BME280;5912;51.034;6.984;2022-10-16T10:46:29;100520.63;;;22.19;47.57
11712;BME280;5912;51.034;6.984;2022-10-16T10:54:35;100510.38;;;22.54;49.40
11712;BME280;5912;51.034;6.984;2022-10-16T10:57:09;100509.97;;;22.89;48.39
11712;BME280;5912;51.034;6.984;2022-10-16T11:07:49;100496.97;;;25.43;41.54
11712;BME280;5912;51.034;6.984;2022-10-16T11:10:23;100500.94;;;25.32;41.30
11712;BME280;5912;51.034;6.984;2022-10-16T11:12:55;100505.41;;;24.74;43.35
11712;BME280;5912;51.034;6.984;2022-10-16T11:15:31;100502.44;;;24.16;44.66
11712;BME280;5912;51.034;6.984;2022-10-16T11:18:20;100508.59;;;24.03;45.89
11712;BME280;5912;51.034;6.984;2022-10-16T11:20:51;100509.09;;;24.05;45.45
11712;BME280;5912;51.034;6.984;2022-10-16T11:23:24;100504.09;;;23.99;47.10
11712;BME280;5912;51.034;6.984;2022-10-16T11:25:52;100520.00;;;23.95;48.04
11712;BME280;5912;51.034;6.984;2022-10-16T11:28:38;100517.03;;;23.78;47.07
11712;BME280;5912;51.034;6.984;2022-10-16T11:33:45;100518.38;;;24.13;45.05
11712;BME280;5912;51.034;6.984;2022-10-16T11:43:50;100518.16;;;23.59;45.63
11712;BME280;5912;51.034;6.984;2022-10-16T11:46:21;100524.25;;;23.64;45.92
11712;BME280;5912;51.034;6.984;2022-10-16T11:49:02;100523.75;;;23.94;46.17
11712;BME280;5912;51.034;6.984;2022-10-16T11:57:32;100530.16;;;24.30;43.50
11712;BME280;5912;51.034;6.984;2022-10-16T12:00:06;100526.31;;;24.04;44.89
11712;BME280;5912;51.034;6.984;2022-10-16T12:02:58;100530.16;;;23.80;45.39
11712;BME280;5912;51.034;6.984;2022-10-16T12:08:22;100521.72;;;23.54;45.29
11712;BME280;5912;51.034;6.984;2022-10-16T12:10:48;100528.31;;;23.43;46.76
11712;BME280;5912;51.034;6.984;2022-10-16T12:13:37;100531.84;;;23.38;45.90
11712;BME280;5912;51.034;6.984;2022-10-16T12:18:30;100539.63;;;23.40;45.86
11712;BME280;5912;51.034;6.984;2022-10-16T12:20:56;100541.28;;;23.36;45.47
11712;BME280;5912;51.034;6.984;2022-10-16T12:23:31;100538.44;;;23.27;45.40
11712;BME280;5912;51.034;6.984;2022-10-16T12:25:59;100539.00;;;23.06;44.86
11712;BME280;5912;51.034;6.984;2022-10-16T12:28:29;100539.22;;;22.86;44.81
11712;BME280;5912;51.034;6.984;2022-10-16T12:30:58;100532.94;;;22.72;46.29
11712;BME280;5912;51.034;6.984;2022-10-16T12:33:33;100532.03;;;22.81;46.55
11712;BME280;5912;51.034;6.984;2022-10-16T12:36:01;100533.22;;;22.94;48.05
11712;BME280;5912;51.034;6.984;2022-10-16T12:38:37;100527.84;;;22.94;48.11
11712;BME280;5912;51.034;6.984;2022-10-16T12:41:08;100525.53;;;22.87;48.73
11712;BME280;5912;51.034;6.984;2022-10-16T12:46:05;100516.44;;;22.65;48.61
11712;BME280;5912;51.034;6.984;2022-10-16T12:48:45;100516.34;;;22.70;48.26
11712;BME280;5912;51.034;6.984;2022-10-16T12:53:37;100516.88;;;22.43;45.70
11712;BME280;5912;51.034;6.984;2022-10-16T12:56:16;100505.44;;;22.09;45.96
11712;BME280;5912;51.034;6.984;2022-10-16T13:04:13;100525.72;;;21.86;47.45
11712;BME280;5912;51.034;6.984;2022-10-16T13:07:25;100512.13;;;22.12;50.04
11712;BME280;5912;51.034;6.984;2022-10-16T13:18:15;100517.00;;;22.33;48.07
11712;BME280;5912;51.034;6.984;2022-10-16T13:24:48;100520.38;;;22.44;45.89
11712;BME280;5912;51.034;6.984;2022-10-16T13:27:14;100520.34;;;22.20;46.45
11712;BME280;5912;51.034;6.984;2022-10-16T13:29:43;100523.47;;;21.98;46.34
11712;BME280;5912;51.034;6.984;2022-10-16T13:32:10;100526.75;;;21.90;47.76
11712;BME280;5912;51.034;6.984;2022-10-16T13:34:48;100523.28;;;21.90;47.88
11712;BME280;5912;51.034;6.984;2022-10-16T13:37:22;100522.53;;;22.13;47.21
11712;BME280;5912;51.034;6.984;2022-10-16T13:39:48;100525.78;;;22.39;45.91
11712;BME280;5912;51.034;6.984;2022-10-16T13:42:27;100526.56;;;22.68;44.92
11712;BME280;5912;51.034;6.984;2022-10-16T13:44:54;100542.25;;;22.51;43.89
11712;BME280;5912;51.034;6.984;2022-10-16T13:47:23;100533.34;;;22.32;45.11
11712;BME280;5912;51.034;6.984;2022-10-16T13:50:06;100530.91;;;22.07;46.47
11712;BME280;5912;51.034;6.984;2022-10-16T13:52:34;100522.56;;;21.74;47.74
11712;BME280;5912;51.034;6.984;2022-10-16T13:54:59;100518.44;;;21.53;46.72
11712;BME280;5912;51.034;6.984;2022-10-16T13:57:25;100512.72;;;21.31;47.57
11712;BME280;5912;51.034;6.984;2022-10-16T13:59:51;100509.28;;;21.21;48.33
11712;BME280;5912;51.034;6.984;2022-10-16T14:02:35;100512.78;;;21.11;48.99
11712;BME280;5912;51.034;6.984;2022-10-16T14:05:04;100521.66;;;21.07;48.72
11712;BME280;5912;51.034;6.984;2022-10-16T14:07:34;100523.19;;;21.18;49.06
11712;BME280;5912;51.034;6.984;2022-10-16T14:10:05;100520.66;;;21.36;47.67
11712;BME280;5912;51.034;6.984;2022-10-16T14:12:31;100518.47;;;21.48;48.21
11712;BME280;5912;51.034;6.984;2022-10-16T14:14:59;100514.13;;;21.57;47.99
11712;BME280;5912;51.034;6.984;2022-10-16T14:17:30;100529.66;;;21.55;47.84
11712;BME280;5912;51.034;6.984;2022-10-16T14:19:58;100532.69;;;21.44;49.21
11712;BME280;5912;51.034;6.984;2022-10-16T14:25:48;100528.84;;;21.11;50.49
11712;BME280;5912;51.034;6.984;2022-10-16T14:28:19;100517.09;;;21.07;50.53
11712;BME280;5912;51.034;6.984;2022-10-16T14:31:00;100525.16;;;20.92;50.46
11712;BME280;5912;51.034;6.984;2022-10-16T14:38:48;100499.91;;;20.60;53.00
11712;BME280;5912;51.034;6.984;2022-10-16T14:41:15;100508.19;;;20.53;53.84
11712;BME280;5912;51.034;6.984;2022-10-16T14:43:42;100501.78;;;20.54;54.76
11712;BME280;5912;51.034;6.984;2022-10-16T14:46:20;100504.44;;;20.59;54.24
11712;BME280;5912;51.034;6.984;2022-10-16T14:48:48;100507.13;;;20.54;55.02
11712;BME280;5912;51.034;6.984;2022-10-16T14:51:18;100479.66;;;20.38;55.11
11712;BME280;5912;51.034;6.984;2022-10-16T14:53:44;100510.06;;;20.52;56.20